createdAt,value
2022-11-07T00:04:36.112Z,46.80
2022-11-07T00:07:19.015Z,50.20
2022-11-07T00:10:01.753Z,55.00
2022-11-07T00:15:27.347Z,49.80
2022-11-07T00:18:10.206Z,50.40
2022-11-07T00:23:36.800Z,47.30
2022-11-07T00:26:19.536Z,50.80
2022-11-07T00:31:47.023Z,53.00
2022-11-07T00:34:29.901Z,55.20
2022-11-07T00:37:12.758Z,47.10
2022-11-07T00:39:55.626Z,46.80
2022-11-07T00:45:21.259Z,47.40
2022-11-07T00:48:04.355Z,47.50
2022-11-07T00:50:47.592Z,47.20
2022-11-07T00:53:30.813Z,48.40
2022-11-07T00:56:16.794Z,52.40
2022-11-07T00:59:01.045Z,60.70
2022-11-07T01:01:43.943Z,64.30
2022-11-07T01:04:45.993Z,62.30
2022-11-07T01:07:28.823Z,62.60
2022-11-07T01:12:54.583Z,60.30
2022-11-07T01:18:24.269Z,61.10
2022-11-07T01:21:13.681Z,64.80
2022-11-07T01:24:00.387Z,54.50
2022-11-07T01:26:47.843Z,73.00
2022-11-07T01:29:30.766Z,63.80
2022-11-07T01:32:13.809Z,72.00
2022-11-07T01:34:56.594Z,79.70
2022-11-07T01:40:22.117Z,76.60
2022-11-07T01:45:49.073Z,76.90
2022-11-07T01:51:17.201Z,75.20
2022-11-07T01:54:01.397Z,83.40
2022-11-07T01:56:45.732Z,87.90
2022-11-07T01:59:31.733Z,74.20
2022-11-07T02:02:15.411Z,82.40
2022-11-07T02:05:02.456Z,87.20
2022-11-07T02:07:46.316Z,74.20
2022-11-07T02:10:29.437Z,72.00
2022-11-07T02:13:18.899Z,74.50
2022-11-07T02:16:03.980Z,74.60
2022-11-07T02:18:47.290Z,82.50
2022-11-07T02:21:40.537Z,80.50
2022-11-07T02:24:28.467Z,77.50
2022-11-07T02:27:14.566Z,75.80
2022-11-07T02:30:09.951Z,79.00
2022-11-07T02:32:56.857Z,82.20
2022-11-07T02:35:43.970Z,80.50
2022-11-07T02:38:35.072Z,85.50
2022-11-07T02:41:23.200Z,85.20
2022-11-07T02:44:10.317Z,82.50
2022-11-07T02:46:54.457Z,87.80
2022-11-07T02:49:37.204Z,77.40
2022-11-07T02:52:20.081Z,84.00
2022-11-07T03:00:29.338Z,77.00
2022-11-07T03:03:13.478Z,84.70
2022-11-07T03:05:57.117Z,74.10
2022-11-07T03:08:40.359Z,78.80
2022-11-07T03:11:23.209Z,78.10
2022-11-07T03:16:48.598Z,78.30
2022-11-07T03:22:15.262Z,75.50
2022-11-07T03:27:48.782Z,73.90
2022-11-07T03:30:31.652Z,77.50
2022-11-07T03:33:14.958Z,78.40
2022-11-07T03:35:58.400Z,83.60
2022-11-07T03:38:41.159Z,83.00
2022-11-07T03:44:06.838Z,75.30
2022-11-07T03:46:49.570Z,80.40
2022-11-07T03:52:15.175Z,75.10
2022-11-07T03:57:40.799Z,76.50
2022-11-07T04:05:50.565Z,76.70
2022-11-07T04:08:33.445Z,72.10
2022-11-07T04:11:36.240Z,66.00
2022-11-07T04:14:37.787Z,79.30
2022-11-07T04:17:20.873Z,78.50
2022-11-07T04:20:05.457Z,76.90
2022-11-07T04:22:48.272Z,71.00
2022-11-07T04:28:32.723Z,65.20
2022-11-07T04:31:15.475Z,69.00
2022-11-07T04:36:42.198Z,70.10
2022-11-07T04:39:26.021Z,70.70
2022-11-07T04:42:08.982Z,67.30
2022-11-07T04:47:40.033Z,69.60
2022-11-07T04:50:24.380Z,71.00
2022-11-07T04:53:07.253Z,68.70
2022-11-07T04:55:50.164Z,65.50
2022-11-07T04:58:32.972Z,72.90
2022-11-07T05:03:58.910Z,70.90
2022-11-07T05:06:42.303Z,76.10
2022-11-07T05:09:25.099Z,82.60
2022-11-07T05:14:50.870Z,79.30
2022-11-07T05:20:31.025Z,64.50
2022-11-07T05:23:18.643Z,61.40
2022-11-07T05:26:02.382Z,72.60
2022-11-07T05:28:45.420Z,74.20
2022-11-07T05:31:28.421Z,67.80
2022-11-07T05:34:14.613Z,72.20
2022-11-07T05:36:57.724Z,64.90
2022-11-07T05:39:40.631Z,66.60
2022-11-07T05:42:23.454Z,65.30
2022-11-07T05:50:41.149Z,64.10
2022-11-07T05:53:25.443Z,68.00
2022-11-07T05:56:10.609Z,70.80
2022-11-07T05:58:53.407Z,63.50
